sensor_id;sensor_type;location;lat;lon;timestamp;P1;durP1;ratioP1;P2;durP2;ratioP2
8183;SDS011;4133;48.752;9.088;2023-05-23T00:01:42;6.05;;;2.75;;
8183;SDS011;4133;48.752;9.088;2023-05-23T00:04:09;3.13;;;2.83;;
8183;SDS011;4133;48.752;9.088;2023-05-23T00:06:41;3.22;;;2.67;;
8183;SDS011;4133;48.752;9.088;2023-05-23T00:09:11;3.08;;;2.78;;
8183;SDS011;4133;48.752;9.088;2023-05-23T00:11:37;4.32;;;3.92;;
8183;SDS011;4133;48.752;9.088;2023-05-23T00:14:03;4.43;;;3.70;;
8183;SDS011;4133;48.752;9.088;2023-05-23T00:16:32;4.03;;;3.47;;
8183;SDS011;4133;48.752;9.088;2023-05-23T00:19:08;5.15;;;3.53;;
8183;SDS011;4133;48.752;9.088;2023-05-23T00:21:34;3.55;;;3.25;;
8183;SDS011;4133;48.752;9.088;2023-05-23T00:24:00;3.28;;;2.97;;
8183;SDS011;4133;48.752;9.088;2023-05-23T00:26:27;3.67;;;3.38;;
8183;SDS011;4133;48.752;9.088;2023-05-23T00:28:56;4.72;;;3.58;;
8183;SDS011;4133;48.752;9.088;2023-05-23T00:31:22;3.72;;;3.10;;
8183;SDS011;4133;48.752;9.088;2023-05-23T00:33:48;4.13;;;3.17;;
8183;SDS011;4133;48.752;9.088;2023-05-23T00:36:14;4.72;;;3.60;;
8183;SDS011;4133;48.752;9.088;2023-05-23T00:38:40;4.60;;;4.10;;
8183;SDS011;4133;48.752;9.088;2023-05-23T00:41:07;4.88;;;3.88;;
8183;SDS011;4133;48.752;9.088;2023-05-23T00:43:33;5.18;;;4.25;;
8183;SDS011;4133;48.752;9.088;2023-05-23T00:45:59;5.05;;;4.25;;
8183;SDS011;4133;48.752;9.088;2023-05-23T00:48:25;7.63;;;5.20;;
8183;SDS011;4133;48.752;9.088;2023-05-23T00:50:52;4.88;;;4.28;;
8183;SDS011;4133;48.752;9.088;2023-05-23T00:53:18;6.03;;;4.18;;
8183;SDS011;4133;48.752;9.088;2023-05-23T00:55:45;7.07;;;4.78;;
8183;SDS011;4133;48.752;9.088;2023-05-23T00:58:11;4.15;;;3.58;;
8183;SDS011;4133;48.752;9.088;2023-05-23T01:00:39;4.90;;;3.60;;
8183;SDS011;4133;48.752;9.088;2023-05-23T01:03:05;6.72;;;4.32;;
8183;SDS011;4133;48.752;9.088;2023-05-23T01:05:31;4.40;;;3.67;;
8183;SDS011;4133;48.752;9.088;2023-05-23T01:07:57;4.40;;;3.55;;
8183;SDS011;4133;48.752;9.088;2023-05-23T01:10:27;6.00;;;5.00;;
8183;SDS011;4133;48.752;9.088;2023-05-23T01:13:02;7.85;;;4.90;;
8183;SDS011;4133;48.752;9.088;2023-05-23T01:15:32;3.78;;;3.28;;
8183;SDS011;4133;48.752;9.088;2023-05-23T01:18:06;4.80;;;4.30;;
8183;SDS011;4133;48.752;9.088;2023-05-23T01:23:28;5.65;;;4.00;;
8183;SDS011;4133;48.752;9.088;2023-05-23T01:28:28;6.55;;;4.72;;
8183;SDS011;4133;48.752;9.088;2023-05-23T01:30:56;5.15;;;4.05;;
8183;SDS011;4133;48.752;9.088;2023-05-23T01:33:23;7.07;;;4.45;;
8183;SDS011;4133;48.752;9.088;2023-05-23T01:35:50;5.32;;;4.60;;
8183;SDS011;4133;48.752;9.088;2023-05-23T01:38:16;6.32;;;4.43;;
8183;SDS011;4133;48.752;9.088;2023-05-23T01:40:42;5.20;;;4.63;;
8183;SDS011;4133;48.752;9.088;2023-05-23T01:43:08;4.57;;;4.05;;
8183;SDS011;4133;48.752;9.088;2023-05-23T01:45:35;7.22;;;5.03;;
8183;SDS011;4133;48.752;9.088;2023-05-23T01:48:01;9.48;;;5.57;;
8183;SDS011;4133;48.752;9.088;2023-05-23T01:50:27;5.13;;;4.32;;
8183;SDS011;4133;48.752;9.088;2023-05-23T01:52:54;8.00;;;5.25;;
8183;SDS011;4133;48.752;9.088;2023-05-23T01:55:21;4.85;;;4.30;;
8183;SDS011;4133;48.752;9.088;2023-05-23T01:57:52;5.90;;;4.40;;
8183;SDS011;4133;48.752;9.088;2023-05-23T02:00:19;7.10;;;5.07;;
8183;SDS011;4133;48.752;9.088;2023-05-23T02:02:46;5.35;;;4.53;;
8183;SDS011;4133;48.752;9.088;2023-05-23T02:05:12;5.82;;;5.00;;
8183;SDS011;4133;48.752;9.088;2023-05-23T02:07:38;5.30;;;4.78;;
8183;SDS011;4133;48.752;9.088;2023-05-23T02:10:06;6.43;;;4.75;;
8183;SDS011;4133;48.752;9.088;2023-05-23T02:12:32;8.82;;;5.47;;
8183;SDS011;4133;48.752;9.088;2023-05-23T02:14:58;4.50;;;3.83;;
8183;SDS011;4133;48.752;9.088;2023-05-23T02:17:24;5.70;;;4.70;;
8183;SDS011;4133;48.752;9.088;2023-05-23T02:22:23;6.05;;;5.25;;
8183;SDS011;4133;48.752;9.088;2023-05-23T02:24:50;7.03;;;5.30;;
8183;SDS011;4133;48.752;9.088;2023-05-23T02:27:16;5.13;;;4.20;;
8183;SDS011;4133;48.752;9.088;2023-05-23T02:29:42;6.75;;;5.15;;
8183;SDS011;4133;48.752;9.088;2023-05-23T02:32:08;7.05;;;4.88;;
8183;SDS011;4133;48.752;9.088;2023-05-23T02:34:34;4.03;;;3.50;;
8183;SDS011;4133;48.752;9.088;2023-05-23T02:37:02;5.07;;;4.57;;
8183;SDS011;4133;48.752;9.088;2023-05-23T02:39:28;5.38;;;4.53;;
8183;SDS011;4133;48.752;9.088;2023-05-23T02:41:54;5.35;;;4.78;;
8183;SDS011;4133;48.752;9.088;2023-05-23T02:44:20;6.13;;;4.95;;
8183;SDS011;4133;48.752;9.088;2023-05-23T02:46:46;7.53;;;5.32;;
8183;SDS011;4133;48.752;9.088;2023-05-23T02:49:12;6.47;;;4.88;;
8183;SDS011;4133;48.752;9.088;2023-05-23T02:51:38;4.88;;;4.07;;
8183;SDS011;4133;48.752;9.088;2023-05-23T02:54:04;5.13;;;4.57;;
8183;SDS011;4133;48.752;9.088;2023-05-23T02:56:30;7.78;;;5.28;;
8183;SDS011;4133;48.752;9.088;2023-05-23T02:58:56;7.25;;;4.50;;
8183;SDS011;4133;48.752;9.088;2023-05-23T03:01:22;7.60;;;5.75;;
8183;SDS011;4133;48.752;9.088;2023-05-23T03:03:48;7.18;;;5.38;;
8183;SDS011;4133;48.752;9.088;2023-05-23T03:06:14;6.82;;;4.70;;
8183;SDS011;4133;48.752;9.088;2023-05-23T03:08:41;6.65;;;5.35;;
8183;SDS011;4133;48.752;9.088;2023-05-23T03:11:07;8.18;;;5.70;;
8183;SDS011;4133;48.752;9.088;2023-05-23T03:13:36;7.40;;;6.00;;
8183;SDS011;4133;48.752;9.088;2023-05-23T03:16:02;6.43;;;5.25;;
8183;SDS011;4133;48.752;9.088;2023-05-23T03:18:28;6.88;;;5.30;;
8183;SDS011;4133;48.752;9.088;2023-05-23T03:20:54;5.95;;;4.55;;
8183;SDS011;4133;48.752;9.088;2023-05-23T03:23:20;5.43;;;4.93;;
8183;SDS011;4133;48.752;9.088;2023-05-23T03:25:46;7.25;;;5.88;;
8183;SDS011;4133;48.752;9.088;2023-05-23T03:28:12;8.13;;;6.20;;
8183;SDS011;4133;48.752;9.088;2023-05-23T03:30:38;8.05;;;6.05;;
8183;SDS011;4133;48.752;9.088;2023-05-23T03:33:04;6.85;;;5.45;;
8183;SDS011;4133;48.752;9.088;2023-05-23T03:35:30;4.65;;;4.15;;
8183;SDS011;4133;48.752;9.088;2023-05-23T03:37:56;6.63;;;5.40;;
8183;SDS011;4133;48.752;9.088;2023-05-23T03:40:22;8.05;;;5.45;;
8183;SDS011;4133;48.752;9.088;2023-05-23T03:42:50;8.50;;;5.90;;
8183;SDS011;4133;48.752;9.088;2023-05-23T03:45:26;6.55;;;5.00;;
8183;SDS011;4133;48.752;9.088;2023-05-23T03:47:52;7.65;;;5.30;;
8183;SDS011;4133;48.752;9.088;2023-05-23T03:50:17;19.15;;;9.80;;
8183;SDS011;4133;48.752;9.088;2023-05-23T03:52:43;18.30;;;9.45;;
8183;SDS011;4133;48.752;9.088;2023-05-23T03:55:09;17.00;;;8.32;;
8183;SDS011;4133;48.752;9.088;2023-05-23T03:57:35;17.25;;;8.32;;
8183;SDS011;4133;48.752;9.088;2023-05-23T04:00:02;16.30;;;8.50;;
8183;SDS011;4133;48.752;9.088;2023-05-23T04:02:30;16.58;;;8.75;;
8183;SDS011;4133;48.752;9.088;2023-05-23T04:04:56;12.63;;;7.53;;
8183;SDS011;4133;48.752;9.088;2023-05-23T04:07:22;21.15;;;8.52;;
8183;SDS011;4133;48.752;9.088;2023-05-23T04:09:50;17.48;;;9.65;;
8183;SDS011;4133;48.752;9.088;2023-05-23T04:12:16;24.23;;;13.23;;
8183;SDS011;4133;48.752;9.088;2023-05-23T04:14:43;12.52;;;7.43;;
8183;SDS011;4133;48.752;9.088;2023-05-23T04:17:11;14.13;;;9.35;;
8183;SDS011;4133;48.752;9.088;2023-05-23T04:19:37;20.20;;;9.55;;
8183;SDS011;4133;48.752;9.088;2023-05-23T04:22:03;8.75;;;5.65;;
8183;SDS011;4133;48.752;9.088;2023-05-23T04:24:29;8.10;;;5.38;;
8183;SDS011;4133;48.752;9.088;2023-05-23T04:26:55;10.15;;;6.03;;
8183;SDS011;4133;48.752;9.088;2023-05-23T04:29:23;5.55;;;4.38;;
8183;SDS011;4133;48.752;9.088;2023-05-23T04:31:50;5.97;;;3.53;;
8183;SDS011;4133;48.752;9.088;2023-05-23T04:34:16;4.80;;;4.13;;
8183;SDS011;4133;48.752;9.088;2023-05-23T04:36:42;4.65;;;2.97;;
8183;SDS011;4133;48.752;9.088;2023-05-23T04:39:08;5.55;;;3.78;;
8183;SDS011;4133;48.752;9.088;2023-05-23T04:41:34;4.07;;;2.65;;
8183;SDS011;4133;48.752;9.088;2023-05-23T04:44:00;4.03;;;2.95;;
8183;SDS011;4133;48.752;9.088;2023-05-23T04:46:26;2.78;;;2.55;;
8183;SDS011;4133;48.752;9.088;2023-05-23T04:48:52;2.63;;;2.13;;
8183;SDS011;4133;48.752;9.088;2023-05-23T04:51:22;3.08;;;2.03;;
8183;SDS011;4133;48.752;9.088;2023-05-23T04:53:49;3.67;;;1.60;;
8183;SDS011;4133;48.752;9.088;2023-05-23T04:56:16;1.63;;;1.52;;
8183;SDS011;4133;48.752;9.088;2023-05-23T04:58:44;2.83;;;2.33;;
8183;SDS011;4133;48.752;9.088;2023-05-23T05:01:10;2.03;;;1.92;;
8183;SDS011;4133;48.752;9.088;2023-05-23T05:03:37;1.50;;;1.40;;
8183;SDS011;4133;48.752;9.088;2023-05-23T05:06:03;1.60;;;1.50;;
8183;SDS011;4133;48.752;9.088;2023-05-23T05:08:30;3.38;;;2.20;;
8183;SDS011;4133;48.752;9.088;2023-05-23T05:10:56;2.38;;;2.13;;
8183;SDS011;4133;48.752;9.088;2023-05-23T05:13:22;3.08;;;2.20;;
8183;SDS011;4133;48.752;9.088;2023-05-23T05:15:48;2.45;;;2.25;;
8183;SDS011;4133;48.752;9.088;2023-05-23T05:18:14;2.85;;;1.90;;
8183;SDS011;4133;48.752;9.088;2023-05-23T05:20:41;3.15;;;2.50;;
8183;SDS011;4133;48.752;9.088;2023-05-23T05:23:07;3.33;;;2.28;;
8183;SDS011;4133;48.752;9.088;2023-05-23T05:25:33;1.73;;;1.60;;
8183;SDS011;4133;48.752;9.088;2023-05-23T05:28:02;2.65;;;2.42;;
8183;SDS011;4133;48.752;9.088;2023-05-23T05:30:30;4.78;;;2.90;;
8183;SDS011;4133;48.752;9.088;2023-05-23T05:33:02;2.15;;;2.05;;
8183;SDS011;4133;48.752;9.088;2023-05-23T05:35:31;3.47;;;1.77;;
8183;SDS011;4133;48.752;9.088;2023-05-23T05:37:57;7.85;;;2.05;;
8183;SDS011;4133;48.752;9.088;2023-05-23T05:40:23;2.47;;;2.20;;
8183;SDS011;4133;48.752;9.088;2023-05-23T05:42:49;3.08;;;2.85;;
8183;SDS011;4133;48.752;9.088;2023-05-23T05:45:16;1.88;;;1.75;;
8183;SDS011;4133;48.752;9.088;2023-05-23T05:47:42;1.52;;;1.42;;
8183;SDS011;4133;48.752;9.088;2023-05-23T05:50:08;2.67;;;2.47;;
8183;SDS011;4133;48.752;9.088;2023-05-23T05:52:35;2.33;;;2.10;;
8183;SDS011;4133;48.752;9.088;2023-05-23T05:55:07;2.20;;;1.98;;
8183;SDS011;4133;48.752;9.088;2023-05-23T05:57:35;2.25;;;2.15;;
8183;SDS011;4133;48.752;9.088;2023-05-23T06:00:03;5.28;;;2.70;;
8183;SDS011;4133;48.752;9.088;2023-05-23T06:02:35;1.92;;;1.52;;
8183;SDS011;4133;48.752;9.088;2023-05-23T06:05:01;2.78;;;2.58;;
8183;SDS011;4133;48.752;9.088;2023-05-23T06:07:28;2.17;;;2.08;;
8183;SDS011;4133;48.752;9.088;2023-05-23T06:09:54;4.43;;;2.15;;
8183;SDS011;4133;48.752;9.088;2023-05-23T06:12:20;4.20;;;2.28;;
8183;SDS011;4133;48.752;9.088;2023-05-23T06:14:46;3.30;;;3.00;;
8183;SDS011;4133;48.752;9.088;2023-05-23T06:17:12;2.28;;;2.13;;
8183;SDS011;4133;48.752;9.088;2023-05-23T06:19:43;2.35;;;2.15;;
8183;SDS011;4133;48.752;9.088;2023-05-23T06:22:10;2.15;;;2.05;;
8183;SDS011;4133;48.752;9.088;2023-05-23T06:24:35;3.75;;;3.42;;
8183;SDS011;4133;48.752;9.088;2023-05-23T06:27:01;2.88;;;2.50;;
8183;SDS011;4133;48.752;9.088;2023-05-23T06:29:28;3.38;;;2.63;;
8183;SDS011;4133;48.752;9.088;2023-05-23T06:31:55;2.72;;;2.40;;
8183;SDS011;4133;48.752;9.088;2023-05-23T06:34:21;2.33;;;2.13;;
8183;SDS011;4133;48.752;9.088;2023-05-23T06:36:47;2.35;;;2.15;;
8183;SDS011;4133;48.752;9.088;2023-05-23T06:39:13;2.38;;;2.17;;
8183;SDS011;4133;48.752;9.088;2023-05-23T06:41:39;2.30;;;2.17;;
8183;SDS011;4133;48.752;9.088;2023-05-23T06:44:05;2.85;;;2.53;;
8183;SDS011;4133;48.752;9.088;2023-05-23T06:46:31;5.30;;;2.40;;
8183;SDS011;4133;48.752;9.088;2023-05-23T06:48:57;4.82;;;2.17;;
8183;SDS011;4133;48.752;9.088;2023-05-23T06:51:23;2.92;;;2.45;;
8183;SDS011;4133;48.752;9.088;2023-05-23T06:53:49;2.35;;;2.15;;
8183;SDS011;4133;48.752;9.088;2023-05-23T06:56:15;4.00;;;2.47;;
8183;SDS011;4133;48.752;9.088;2023-05-23T06:58:41;2.10;;;2.00;;
8183;SDS011;4133;48.752;9.088;2023-05-23T07:01:07;2.45;;;2.25;;
8183;SDS011;4133;48.752;9.088;2023-05-23T07:03:34;2.50;;;2.10;;
8183;SDS011;4133;48.752;9.088;2023-05-23T07:06:02;2.13;;;2.03;;
8183;SDS011;4133;48.752;9.088;2023-05-23T07:08:28;2.10;;;1.95;;
8183;SDS011;4133;48.752;9.088;2023-05-23T07:10:54;1.90;;;1.80;;
8183;SDS011;4133;48.752;9.088;2023-05-23T07:13:20;2.53;;;2.17;;
8183;SDS011;4133;48.752;9.088;2023-05-23T07:15:46;0.90;;;0.90;;
8183;SDS011;4133;48.752;9.088;2023-05-23T07:18:12;1.73;;;1.63;;
8183;SDS011;4133;48.752;9.088;2023-05-23T07:20:46;1.90;;;1.80;;
8183;SDS011;4133;48.752;9.088;2023-05-23T07:23:13;2.83;;;2.42;;
8183;SDS011;4133;48.752;9.088;2023-05-23T07:25:39;1.00;;;1.00;;
8183;SDS011;4133;48.752;9.088;2023-05-23T07:28:06;1.80;;;1.65;;
8183;SDS011;4133;48.752;9.088;2023-05-23T07:30:32;3.83;;;2.58;;
8183;SDS011;4133;48.752;9.088;2023-05-23T07:32:58;2.47;;;1.90;;
8183;SDS011;4133;48.752;9.088;2023-05-23T07:35:24;1.20;;;1.10;;
8183;SDS011;4133;48.752;9.088;2023-05-23T07:37:54;2.72;;;2.53;;
8183;SDS011;4133;48.752;9.088;2023-05-23T07:40:20;2.53;;;2.35;;
8183;SDS011;4133;48.752;9.088;2023-05-23T07:42:46;1.92;;;1.83;;
8183;SDS011;4133;48.752;9.088;2023-05-23T07:45:13;2.05;;;1.90;;
8183;SDS011;4133;48.752;9.088;2023-05-23T07:47:39;2.05;;;1.63;;
8183;SDS011;4133;48.752;9.088;2023-05-23T07:50:05;2.13;;;1.98;;
8183;SDS011;4133;48.752;9.088;2023-05-23T07:52:32;1.42;;;1.33;;
8183;SDS011;4133;48.752;9.088;2023-05-23T07:54:58;2.67;;;2.47;;
8183;SDS011;4133;48.752;9.088;2023-05-23T07:57:24;2.72;;;2.53;;
8183;SDS011;4133;48.752;9.088;2023-05-23T07:59:51;2.63;;;2.47;;
8183;SDS011;4133;48.752;9.088;2023-05-23T08:02:17;2.17;;;1.77;;
8183;SDS011;4133;48.752;9.088;2023-05-23T08:04:43;1.35;;;1.27;;
8183;SDS011;4133;48.752;9.088;2023-05-23T08:07:10;3.17;;;2.88;;
8183;SDS011;4133;48.752;9.088;2023-05-23T08:09:37;3.60;;;3.05;;
8183;SDS011;4133;48.752;9.088;2023-05-23T08:12:04;1.73;;;1.63;;
8183;SDS011;4133;48.752;9.088;2023-05-23T08:14:30;1.67;;;1.58;;
8183;SDS011;4133;48.752;9.088;2023-05-23T08:16:56;2.83;;;1.85;;
8183;SDS011;4133;48.752;9.088;2023-05-23T08:19:22;1.90;;;1.70;;
8183;SDS011;4133;48.752;9.088;2023-05-23T08:21:48;1.73;;;1.63;;
8183;SDS011;4133;48.752;9.088;2023-05-23T08:24:15;2.53;;;2.33;;
8183;SDS011;4133;48.752;9.088;2023-05-23T08:26:41;2.20;;;1.70;;
8183;SDS011;4133;48.752;9.088;2023-05-23T08:29:07;1.98;;;1.83;;
8183;SDS011;4133;48.752;9.088;2023-05-23T08:31:34;2.28;;;2.17;;
8183;SDS011;4133;48.752;9.088;2023-05-23T08:34:00;2.00;;;1.90;;
8183;SDS011;4133;48.752;9.088;2023-05-23T08:36:26;2.35;;;2.15;;
8183;SDS011;4133;48.752;9.088;2023-05-23T08:38:52;2.05;;;1.77;;
8183;SDS011;4133;48.752;9.088;2023-05-23T08:41:18;1.13;;;1.02;;
8183;SDS011;4133;48.752;9.088;2023-05-23T08:43:45;0.70;;;0.70;;
8183;SDS011;4133;48.752;9.088;2023-05-23T08:46:11;0.93;;;0.75;;
8183;SDS011;4133;48.752;9.088;2023-05-23T08:48:38;1.45;;;1.40;;
8183;SDS011;4133;48.752;9.088;2023-05-23T08:51:04;1.35;;;1.35;;
8183;SDS011;4133;48.752;9.088;2023-05-23T08:53:31;0.85;;;0.85;;
8183;SDS011;4133;48.752;9.088;2023-05-23T08:55:58;1.13;;;1.10;;
8183;SDS011;4133;48.752;9.088;2023-05-23T08:58:29;1.30;;;1.27;;
8183;SDS011;4133;48.752;9.088;2023-05-23T09:00:58;1.30;;;1.23;;
8183;SDS011;4133;48.752;9.088;2023-05-23T09:03:27;3.08;;;1.65;;
8183;SDS011;4133;48.752;9.088;2023-05-23T09:05:53;0.98;;;0.98;;
8183;SDS011;4133;48.752;9.088;2023-05-23T09:08:20;1.75;;;1.63;;
8183;SDS011;4133;48.752;9.088;2023-05-23T09:10:49;6.70;;;1.83;;
8183;SDS011;4133;48.752;9.088;2023-05-23T09:13:15;2.10;;;1.98;;
8183;SDS011;4133;48.752;9.088;2023-05-23T09:18:26;2.38;;;1.15;;
8183;SDS011;4133;48.752;9.088;2023-05-23T09:20:53;1.75;;;1.35;;
8183;SDS011;4133;48.752;9.088;2023-05-23T09:23:19;1.98;;;1.88;;
8183;SDS011;4133;48.752;9.088;2023-05-23T09:25:46;1.35;;;1.20;;
8183;SDS011;4133;48.752;9.088;2023-05-23T09:28:12;1.73;;;1.30;;
8183;SDS011;4133;48.752;9.088;2023-05-23T09:30:38;1.30;;;1.02;;
8183;SDS011;4133;48.752;9.088;2023-05-23T09:33:04;0.98;;;0.98;;
8183;SDS011;4133;48.752;9.088;2023-05-23T09:35:30;1.17;;;0.90;;
8183;SDS011;4133;48.752;9.088;2023-05-23T09:37:57;1.17;;;1.15;;
8183;SDS011;4133;48.752;9.088;2023-05-23T09:40:23;0.80;;;0.80;;
8183;SDS011;4133;48.752;9.088;2023-05-23T09:42:53;0.95;;;0.95;;
8183;SDS011;4133;48.752;9.088;2023-05-23T09:45:19;1.35;;;1.25;;
8183;SDS011;4133;48.752;9.088;2023-05-23T09:47:51;1.70;;;0.65;;
8183;SDS011;4133;48.752;9.088;2023-05-23T09:50:18;1.23;;;0.55;;
8183;SDS011;4133;48.752;9.088;2023-05-23T09:52:44;1.52;;;1.42;;
8183;SDS011;4133;48.752;9.088;2023-05-23T09:55:11;1.20;;;1.10;;
8183;SDS011;4133;48.752;9.088;2023-05-23T09:57:39;1.42;;;1.33;;
8183;SDS011;4133;48.752;9.088;2023-05-23T10:00:06;1.63;;;0.88;;
8183;SDS011;4133;48.752;9.088;2023-05-23T10:05:08;1.45;;;1.35;;
8183;SDS011;4133;48.752;9.088;2023-05-23T10:07:37;0.88;;;0.88;;
8183;SDS011;4133;48.752;9.088;2023-05-23T10:10:03;0.85;;;0.85;;
8183;SDS011;4133;48.752;9.088;2023-05-23T10:14:57;0.52;;;0.52;;
8183;SDS011;4133;48.752;9.088;2023-05-23T10:20:09;0.82;;;0.82;;
8183;SDS011;4133;48.752;9.088;2023-05-23T10:22:36;0.98;;;0.75;;
8183;SDS011;4133;48.752;9.088;2023-05-23T10:25:03;0.65;;;0.65;;
8183;SDS011;4133;48.752;9.088;2023-05-23T10:27:34;3.40;;;0.77;;
8183;SDS011;4133;48.752;9.088;2023-05-23T10:30:00;2.28;;;0.55;;
8183;SDS011;4133;48.752;9.088;2023-05-23T10:32:26;1.25;;;1.15;;
8183;SDS011;4133;48.752;9.088;2023-05-23T10:37:23;0.75;;;0.75;;
8183;SDS011;4133;48.752;9.088;2023-05-23T10:40:00;0.45;;;0.45;;
8183;SDS011;4133;48.752;9.088;2023-05-23T10:45:14;0.68;;;0.68;;
8183;SDS011;4133;48.752;9.088;2023-05-23T10:47:40;0.93;;;0.93;;
8183;SDS011;4133;48.752;9.088;2023-05-23T10:50:06;1.35;;;0.60;;
8183;SDS011;4133;48.752;9.088;2023-05-23T10:52:38;0.63;;;0.63;;
8183;SDS011;4133;48.752;9.088;2023-05-23T10:55:10;0.63;;;0.63;;
8183;SDS011;4133;48.752;9.088;2023-05-23T10:57:37;0.32;;;0.32;;
8183;SDS011;4133;48.752;9.088;2023-05-23T11:00:03;0.30;;;0.30;;
8183;SDS011;4133;48.752;9.088;2023-05-23T11:02:29;0.68;;;0.68;;
8183;SDS011;4133;48.752;9.088;2023-05-23T11:07:41;0.65;;;0.65;;
8183;SDS011;4133;48.752;9.088;2023-05-23T11:10:08;0.57;;;0.57;;
8183;SDS011;4133;48.752;9.088;2023-05-23T11:12:39;0.93;;;0.93;;
8183;SDS011;4133;48.752;9.088;2023-05-23T11:17:48;1.08;;;1.08;;
8183;SDS011;4133;48.752;9.088;2023-05-23T11:20:17;0.60;;;0.60;;
8183;SDS011;4133;48.752;9.088;2023-05-23T11:25:20;1.15;;;1.02;;
8183;SDS011;4133;48.752;9.088;2023-05-23T11:27:47;0.93;;;0.90;;
8183;SDS011;4133;48.752;9.088;2023-05-23T11:30:15;0.90;;;0.90;;
8183;SDS011;4133;48.752;9.088;2023-05-23T11:32:51;0.90;;;0.90;;
8183;SDS011;4133;48.752;9.088;2023-05-23T11:35:18;1.15;;;0.98;;
8183;SDS011;4133;48.752;9.088;2023-05-23T11:37:45;0.63;;;0.63;;
8183;SDS011;4133;48.752;9.088;2023-05-23T11:40:24;1.70;;;1.23;;
8183;SDS011;4133;48.752;9.088;2023-05-23T11:42:50;0.65;;;0.65;;
8183;SDS011;4133;48.752;9.088;2023-05-23T11:45:20;0.60;;;0.60;;
8183;SDS011;4133;48.752;9.088;2023-05-23T11:47:47;1.20;;;0.90;;
8183;SDS011;4133;48.752;9.088;2023-05-23T11:50:13;1.02;;;1.02;;
8183;SDS011;4133;48.752;9.088;2023-05-23T11:52:40;0.85;;;0.85;;
8183;SDS011;4133;48.752;9.088;2023-05-23T11:55:06;1.60;;;1.50;;
8183;SDS011;4133;48.752;9.088;2023-05-23T11:57:32;1.65;;;1.20;;
8183;SDS011;4133;48.752;9.088;2023-05-23T11:59:58;0.68;;;0.68;;
8183;SDS011;4133;48.752;9.088;2023-05-23T12:02:26;1.92;;;0.73;;
8183;SDS011;4133;48.752;9.088;2023-05-23T12:04:52;0.70;;;0.70;;
8183;SDS011;4133;48.752;9.088;2023-05-23T12:07:18;0.50;;;0.50;;
8183;SDS011;4133;48.752;9.088;2023-05-23T12:09:45;0.82;;;0.82;;
8183;SDS011;4133;48.752;9.088;2023-05-23T12:12:12;0.45;;;0.45;;
8183;SDS011;4133;48.752;9.088;2023-05-23T12:14:38;0.95;;;0.95;;
8183;SDS011;4133;48.752;9.088;2023-05-23T12:17:11;0.55;;;0.55;;
8183;SDS011;4133;48.752;9.088;2023-05-23T12:19:38;0.57;;;0.57;;
8183;SDS011;4133;48.752;9.088;2023-05-23T12:22:05;1.55;;;0.95;;
8183;SDS011;4133;48.752;9.088;2023-05-23T12:24:33;0.45;;;0.45;;
8183;SDS011;4133;48.752;9.088;2023-05-23T12:27:01;0.77;;;0.77;;
8183;SDS011;4133;48.752;9.088;2023-05-23T12:29:28;0.63;;;0.63;;
8183;SDS011;4133;48.752;9.088;2023-05-23T12:31:56;0.93;;;0.93;;
8183;SDS011;4133;48.752;9.088;2023-05-23T12:34:22;0.85;;;0.85;;
8183;SDS011;4133;48.752;9.088;2023-05-23T12:36:48;0.40;;;0.40;;
8183;SDS011;4133;48.752;9.088;2023-05-23T12:39:17;0.45;;;0.45;;
8183;SDS011;4133;48.752;9.088;2023-05-23T12:41:50;0.40;;;0.40;;
8183;SDS011;4133;48.752;9.088;2023-05-23T12:44:16;0.40;;;0.40;;
8183;SDS011;4133;48.752;9.088;2023-05-23T12:46:42;0.65;;;0.63;;
8183;SDS011;4133;48.752;9.088;2023-05-23T12:49:08;0.55;;;0.47;;
8183;SDS011;4133;48.752;9.088;2023-05-23T12:51:35;0.90;;;0.40;;
8183;SDS011;4133;48.752;9.088;2023-05-23T12:54:01;0.50;;;0.50;;
8183;SDS011;4133;48.752;9.088;2023-05-23T12:56:27;0.40;;;0.40;;
8183;SDS011;4133;48.752;9.088;2023-05-23T12:58:53;1.00;;;0.40;;
8183;SDS011;4133;48.752;9.088;2023-05-23T13:01:19;0.55;;;0.55;;
8183;SDS011;4133;48.752;9.088;2023-05-23T13:03:46;0.47;;;0.43;;
8183;SDS011;4133;48.752;9.088;2023-05-23T13:06:12;0.38;;;0.38;;
8183;SDS011;4133;48.752;9.088;2023-05-23T13:08:38;0.47;;;0.40;;
8183;SDS011;4133;48.752;9.088;2023-05-23T13:11:04;1.00;;;1.00;;
8183;SDS011;4133;48.752;9.088;2023-05-23T13:13:30;0.98;;;0.30;;
8183;SDS011;4133;48.752;9.088;2023-05-23T13:15:59;0.50;;;0.50;;
8183;SDS011;4133;48.752;9.088;2023-05-23T13:18:25;0.80;;;0.60;;
8183;SDS011;4133;48.752;9.088;2023-05-23T13:20:54;1.75;;;0.82;;
8183;SDS011;4133;48.752;9.088;2023-05-23T13:23:20;0.93;;;0.82;;
8183;SDS011;4133;48.752;9.088;2023-05-23T13:25:46;0.77;;;0.77;;
8183;SDS011;4133;48.752;9.088;2023-05-23T13:28:14;0.45;;;0.45;;
8183;SDS011;4133;48.752;9.088;2023-05-23T13:30:40;0.40;;;0.40;;
8183;SDS011;4133;48.752;9.088;2023-05-23T13:33:06;0.40;;;0.40;;
8183;SDS011;4133;48.752;9.088;2023-05-23T13:35:32;0.40;;;0.40;;
8183;SDS011;4133;48.752;9.088;2023-05-23T13:37:58;0.40;;;0.40;;
8183;SDS011;4133;48.752;9.088;2023-05-23T13:40:24;0.70;;;0.70;;
8183;SDS011;4133;48.752;9.088;2023-05-23T13:42:50;0.60;;;0.60;;
8183;SDS011;4133;48.752;9.088;2023-05-23T13:45:17;0.30;;;0.30;;
8183;SDS011;4133;48.752;9.088;2023-05-23T13:47:43;0.63;;;0.60;;
8183;SDS011;4133;48.752;9.088;2023-05-23T13:50:10;0.50;;;0.50;;
8183;SDS011;4133;48.752;9.088;2023-05-23T13:52:36;0.45;;;0.45;;
8183;SDS011;4133;48.752;9.088;2023-05-23T13:55:02;0.47;;;0.47;;
8183;SDS011;4133;48.752;9.088;2023-05-23T13:57:29;0.75;;;0.40;;
8183;SDS011;4133;48.752;9.088;2023-05-23T13:59:55;0.52;;;0.52;;
8183;SDS011;4133;48.752;9.088;2023-05-23T14:02:21;1.10;;;0.65;;
8183;SDS011;4133;48.752;9.088;2023-05-23T14:04:47;0.40;;;0.40;;
8183;SDS011;4133;48.752;9.088;2023-05-23T14:07:16;1.27;;;0.82;;
8183;SDS011;4133;48.752;9.088;2023-05-23T14:09:43;0.55;;;0.55;;
8183;SDS011;4133;48.752;9.088;2023-05-23T14:12:09;0.32;;;0.32;;
8183;SDS011;4133;48.752;9.088;2023-05-23T14:14:35;1.55;;;0.50;;
8183;SDS011;4133;48.752;9.088;2023-05-23T14:17:01;0.70;;;0.70;;
8183;SDS011;4133;48.752;9.088;2023-05-23T14:19:27;1.10;;;0.50;;
8183;SDS011;4133;48.752;9.088;2023-05-23T14:21:53;0.68;;;0.68;;
8183;SDS011;4133;48.752;9.088;2023-05-23T14:24:19;0.82;;;0.82;;
8183;SDS011;4133;48.752;9.088;2023-05-23T14:26:46;0.50;;;0.50;;
8183;SDS011;4133;48.752;9.088;2023-05-23T14:29:13;0.60;;;0.60;;
8183;SDS011;4133;48.752;9.088;2023-05-23T14:31:40;0.63;;;0.52;;
8183;SDS011;4133;48.752;9.088;2023-05-23T14:34:06;0.40;;;0.40;;
8183;SDS011;4133;48.752;9.088;2023-05-23T14:36:32;0.50;;;0.50;;
8183;SDS011;4133;48.752;9.088;2023-05-23T14:38:58;0.65;;;0.65;;
8183;SDS011;4133;48.752;9.088;2023-05-23T14:41:25;0.70;;;0.47;;
8183;SDS011;4133;48.752;9.088;2023-05-23T14:43:52;1.90;;;0.85;;
8183;SDS011;4133;48.752;9.088;2023-05-23T14:46:18;0.38;;;0.32;;
8183;SDS011;4133;48.752;9.088;2023-05-23T14:48:45;0.30;;;0.30;;
8183;SDS011;4133;48.752;9.088;2023-05-23T14:51:11;0.20;;;0.20;;
8183;SDS011;4133;48.752;9.088;2023-05-23T14:53:37;0.52;;;0.52;;
8183;SDS011;4133;48.752;9.088;2023-05-23T14:56:03;0.68;;;0.68;;
8183;SDS011;4133;48.752;9.088;2023-05-23T14:58:29;0.60;;;0.60;;
8183;SDS011;4133;48.752;9.088;2023-05-23T15:00:55;0.75;;;0.75;;
8183;SDS011;4133;48.752;9.088;2023-05-23T15:03:24;0.22;;;0.22;;
8183;SDS011;4133;48.752;9.088;2023-05-23T15:05:51;1.50;;;0.65;;
8183;SDS011;4133;48.752;9.088;2023-05-23T15:08:17;0.40;;;0.40;;
8183;SDS011;4133;48.752;9.088;2023-05-23T15:10:43;0.55;;;0.55;;
8183;SDS011;4133;48.752;9.088;2023-05-23T15:13:09;0.25;;;0.25;;
8183;SDS011;4133;48.752;9.088;2023-05-23T15:15:35;0.57;;;0.50;;
8183;SDS011;4133;48.752;9.088;2023-05-23T15:18:02;0.40;;;0.40;;
8183;SDS011;4133;48.752;9.088;2023-05-23T15:20:32;0.43;;;0.43;;
8183;SDS011;4133;48.752;9.088;2023-05-23T15:22:58;0.45;;;0.45;;
8183;SDS011;4133;48.752;9.088;2023-05-23T15:25:24;0.57;;;0.57;;
8183;SDS011;4133;48.752;9.088;2023-05-23T15:27:53;0.63;;;0.63;;
8183;SDS011;4133;48.752;9.088;2023-05-23T15:30:20;0.43;;;0.40;;
8183;SDS011;4133;48.752;9.088;2023-05-23T15:32:46;0.70;;;0.70;;
8183;SDS011;4133;48.752;9.088;2023-05-23T15:35:12;0.40;;;0.40;;
8183;SDS011;4133;48.752;9.088;2023-05-23T15:37:38;0.40;;;0.40;;
8183;SDS011;4133;48.752;9.088;2023-05-23T15:40:05;0.90;;;0.73;;
8183;SDS011;4133;48.752;9.088;2023-05-23T15:42:31;1.10;;;1.00;;
8183;SDS011;4133;48.752;9.088;2023-05-23T15:44:57;0.40;;;0.40;;